Time;durP1;ratioP1;P1;durP2;ratioP2;P2;SDS_P1;SDS_P2;PMS_P1;PMS_P2;Temp;Humidity;BMP_temperature;BMP_pressure;BME280_temperature;BME280_humidity;BME280_pressure;Samples;Min_cycle;Max_cycle;Signal;HPM_P1;HPM_P2
2021/12/31 00:00:34;;;;;;;;;;;;;;;4.95;64.68;98929.56;6350082;22;1265;-96
2021/12/31 00:03:00;;;;;;;;;;;;;;;4.94;64.59;98936.78;6354812;22;1275;-94
2021/12/31 00:05:27;;;;;;;;;;;;;;;4.96;64.51;98928.53;6353121;22;1168;-94
2021/12/31 00:07:53;;;;;;;;;;;;;;;4.93;64.63;98937.78;6350719;22;1252;-96
2021/12/31 00:10:20;;;;;;;;;;;;;;;4.92;64.65;98922.81;6350878;22;1285;-96
2021/12/31 00:12:57;;;;;;;;;;;;;;;4.93;64.85;98935.13;6349158;22;1487;-96
2021/12/31 00:15:25;;;;;;;;;;;;;;;4.92;64.68;98943.38;6348952;22;941;-95
2021/12/31 00:17:52;;;;;;;;;;;;;;;4.90;64.73;98930.22;6348235;22;1881;-95
2021/12/31 00:20:22;;;;;;;;;;;;;;;4.91;64.84;98944.38;6346893;22;1157;-95
2021/12/31 00:25:35;;;;;;;;;;;;;;;4.91;64.82;98953.22;6350142;22;1328;-95
2021/12/31 00:28:02;;;;;;;;;;;;;;;4.90;64.73;98948.91;6351299;22;1252;-96
2021/12/31 00:30:29;;;;;;;;;;;;;;;4.90;64.74;98959.56;6349798;22;1180;-95
2021/12/31 00:32:55;;;;;;;;;;;;;;;4.89;64.75;98957.16;6350627;22;1416;-96
2021/12/31 00:35:22;;;;;;;;;;;;;;;4.89;64.71;98960.63;6345001;22;1448;-95
2021/12/31 00:37:51;;;;;;;;;;;;;;;4.89;64.79;98939.28;6349247;22;1951;-96
2021/12/31 00:40:17;;;;;;;;;;;;;;;4.88;64.65;98943.00;6350681;22;1334;-96
2021/12/31 00:42:44;;;;;;;;;;;;;;;4.90;64.85;98948.09;6350373;22;1177;-94
2021/12/31 00:45:14;;;;;;;;;;;;;;;4.91;64.57;98965.72;6345826;22;1165;-93
2021/12/31 00:47:40;;;;;;;;;;;;;;;4.91;64.65;98952.38;6351949;22;1045;-94
2021/12/31 00:50:07;;;;;;;;;;;;;;;4.90;64.71;98951.56;6342954;22;1451;-94
2021/12/31 00:52:33;;;;;;;;;;;;;;;4.89;64.62;98931.28;6351345;22;1271;-95
2021/12/31 00:55:01;;;;;;;;;;;;;;;4.89;64.64;98965.97;6349408;22;1234;-96
2021/12/31 00:57:27;;;;;;;;;;;;;;;4.90;64.75;98943.56;6351139;22;1956;-95
2021/12/31 00:59:54;;;;;;;;;;;;;;;4.90;64.61;98954.25;6350312;22;1277;-94
2021/12/31 01:02:22;;;;;;;;;;;;;;;4.90;64.80;98967.59;6347361;22;1311;-95
2021/12/31 01:04:49;;;;;;;;;;;;;;;4.91;64.72;98947.88;6352248;22;1189;-95
2021/12/31 01:07:15;;;;;;;;;;;;;;;4.92;64.68;98948.69;6346823;22;1371;-95
2021/12/31 01:09:42;;;;;;;;;;;;;;;4.91;64.54;98961.22;6347112;22;1316;-95
2021/12/31 01:12:10;;;;;;;;;;;;;;;4.93;64.56;98964.47;6348531;22;1158;-94
2021/12/31 01:14:40;;;;;;;;;;;;;;;4.93;64.60;98950.31;6348246;22;1480;-94
2021/12/31 01:17:13;;;;;;;;;;;;;;;4.94;64.42;98957.28;6348749;22;1907;-95
2021/12/31 01:19:50;;;;;;;;;;;;;;;4.94;64.58;98966.13;6347398;22;1480;-94
2021/12/31 01:22:18;;;;;;;;;;;;;;;4.94;64.40;98944.78;6346820;22;1324;-94
2021/12/31 01:24:45;;;;;;;;;;;;;;;4.93;64.54;98956.47;6344403;22;1269;-95
2021/12/31 01:27:14;;;;;;;;;;;;;;;4.95;64.50;98969.59;6348819;22;1644;-94
2021/12/31 01:29:42;;;;;;;;;;;;;;;4.95;64.51;98980.28;6346481;22;1296;-95
2021/12/31 01:32:08;;;;;;;;;;;;;;;4.94;64.51;98971.47;6347803;22;1191;-95
2021/12/31 01:34:35;;;;;;;;;;;;;;;4.95;64.54;98962.41;6347985;22;1175;-96
2021/12/31 01:37:01;;;;;;;;;;;;;;;4.95;64.43;98972.28;6350775;22;1936;-94
2021/12/31 01:39:29;;;;;;;;;;;;;;;4.93;64.49;98969.00;6348603;22;1280;-96
2021/12/31 01:41:57;;;;;;;;;;;;;;;4.94;64.43;98965.28;6349468;22;1236;-96
2021/12/31 01:44:27;;;;;;;;;;;;;;;4.96;64.45;98981.88;6349475;22;1188;-96
2021/12/31 01:46:55;;;;;;;;;;;;;;;4.95;64.50;98980.28;6348490;22;1320;-93
2021/12/31 01:49:24;;;;;;;;;;;;;;;4.95;64.50;98985.59;6346948;22;1283;-94
2021/12/31 01:51:51;;;;;;;;;;;;;;;4.96;64.57;98989.91;6345965;22;1583;-94
2021/12/31 01:54:18;;;;;;;;;;;;;;;4.95;64.54;98982.94;6350094;22;1311;-95
2021/12/31 01:56:44;;;;;;;;;;;;;;;4.94;64.62;98978.63;6350476;22;1913;-95
2021/12/31 01:59:12;;;;;;;;;;;;;;;4.94;64.69;98984.78;6349982;22;1267;-94
2021/12/31 02:01:39;;;;;;;;;;;;;;;4.94;64.49;98975.94;6346288;22;1324;-94
2021/12/31 02:04:06;;;;;;;;;;;;;;;4.93;64.70;98972.47;6351846;22;1295;-95
2021/12/31 02:06:32;;;;;;;;;;;;;;;4.92;64.70;98965.53;6347762;22;1218;-95
2021/12/31 02:08:58;;;;;;;;;;;;;;;4.93;64.59;98969.00;6348640;22;1283;-95
2021/12/31 02:11:25;;;;;;;;;;;;;;;4.93;64.74;98971.66;6347576;22;1288;-95
2021/12/31 02:13:52;;;;;;;;;;;;;;;4.93;64.53;98977.00;6350937;22;1311;-95
2021/12/31 02:16:19;;;;;;;;;;;;;;;4.93;64.56;98971.66;6347540;22;1298;-94
2021/12/31 02:18:45;;;;;;;;;;;;;;;4.94;64.52;98979.47;6343173;22;1955;-94
2021/12/31 02:21:12;;;;;;;;;;;;;;;4.92;64.63;98978.84;6348018;22;1283;-95
2021/12/31 02:23:43;;;;;;;;;;;;;;;4.92;64.57;98967.38;6348585;22;1285;-94
2021/12/31 02:26:10;;;;;;;;;;;;;;;4.93;64.63;98966.31;6348132;22;1324;-94
2021/12/31 02:28:37;;;;;;;;;;;;;;;4.91;64.63;98971.91;6348490;22;1309;-93
2021/12/31 02:31:03;;;;;;;;;;;;;;;4.92;64.60;98978.03;6348006;22;1268;-94
2021/12/31 02:33:30;;;;;;;;;;;;;;;4.91;64.52;98973.72;6350654;22;1279;-94
2021/12/31 02:35:57;;;;;;;;;;;;;;;4.91;64.30;98979.91;6348843;22;1467;-94
2021/12/31 02:38:23;;;;;;;;;;;;;;;4.89;64.68;98968.63;6350177;22;1881;-95
2021/12/31 02:40:49;;;;;;;;;;;;;;;4.90;64.56;98983.59;6350076;22;1269;-93
2021/12/31 02:43:16;;;;;;;;;;;;;;;4.90;64.74;98980.09;6349886;22;1282;-93
2021/12/31 02:45:43;;;;;;;;;;;;;;;4.89;64.55;98979.31;6345446;22;1256;-95
2021/12/31 02:48:10;;;;;;;;;;;;;;;4.88;64.65;98974.16;6348064;22;1181;-94
2021/12/31 02:50:38;;;;;;;;;;;;;;;4.88;64.80;98971.50;6347407;22;1289;-94
2021/12/31 02:53:05;;;;;;;;;;;;;;;4.86;64.58;98977.06;6346566;22;1269;-96
2021/12/31 02:55:31;;;;;;;;;;;;;;;4.88;64.92;98975.00;6346932;22;1393;-95
2021/12/31 02:57:58;;;;;;;;;;;;;;;4.86;64.62;98977.06;6343446;22;1933;-94
2021/12/31 03:00:24;;;;;;;;;;;;;;;4.86;64.67;98973.59;6344104;22;1161;-94
2021/12/31 03:02:51;;;;;;;;;;;;;;;4.86;64.88;98962.94;6344789;22;1327;-95
2021/12/31 03:05:18;;;;;;;;;;;;;;;4.85;64.67;98961.28;6346937;22;1244;-95
2021/12/31 03:07:44;;;;;;;;;;;;;;;4.85;64.75;98963.94;6343684;22;1292;-95
2021/12/31 03:10:11;;;;;;;;;;;;;;;4.87;64.67;98961.88;6343389;22;1279;-94
2021/12/31 03:12:37;;;;;;;;;;;;;;;4.85;64.73;98963.94;6342484;22;1336;-95
2021/12/31 03:15:04;;;;;;;;;;;;;;;4.83;64.65;98961.50;6343113;22;1167;-94
2021/12/31 03:17:30;;;;;;;;;;;;;;;4.84;64.72;98968.47;6343438;22;1904;-95
2021/12/31 03:20:08;;;;;;;;;;;;;;;4.86;64.90;98968.25;6341699;22;1193;-94
2021/12/31 03:22:35;;;;;;;;;;;;;;;4.84;64.75;98963.13;6342729;22;1212;-94
2021/12/31 03:25:01;;;;;;;;;;;;;;;4.85;64.89;98953.28;6342478;22;1295;-94
2021/12/31 03:27:28;;;;;;;;;;;;;;;4.83;64.75;98942.84;6342924;22;1282;-94
2021/12/31 03:29:54;;;;;;;;;;;;;;;4.84;64.69;98944.47;6344101;22;1252;-95
2021/12/31 03:32:21;;;;;;;;;;;;;;;4.82;64.85;98951.06;6343155;22;1307;-94
2021/12/31 03:34:48;;;;;;;;;;;;;;;4.84;64.79;98954.31;6342553;22;1180;-94
2021/12/31 03:37:15;;;;;;;;;;;;;;;4.84;64.70;98944.47;6343512;22;1869;-94
2021/12/31 03:39:41;;;;;;;;;;;;;;;4.85;64.77;98950.59;6342525;22;1283;-96
2021/12/31 03:42:09;;;;;;;;;;;;;;;4.85;64.72;98948.75;6343587;22;1588;-94
2021/12/31 03:44:36;;;;;;;;;;;;;;;4.84;64.84;98948.97;6342296;22;1230;-95
2021/12/31 03:47:02;;;;;;;;;;;;;;;4.83;64.61;98953.50;6343065;22;1245;-96
2021/12/31 03:49:29;;;;;;;;;;;;;;;4.85;64.83;98955.94;6342559;22;1389;-95
2021/12/31 03:51:55;;;;;;;;;;;;;;;4.86;64.72;98954.94;6341762;22;1206;-93
2021/12/31 03:54:24;;;;;;;;;;;;;;;4.85;64.81;98964.75;6284103;22;1202;-93
2021/12/31 03:56:50;;;;;;;;;;;;;;;4.87;64.72;98965.34;6285572;22;1278;-95
2021/12/31 03:59:17;;;;;;;;;;;;;;;4.87;64.66;98964.53;6287957;22;1944;-94
2021/12/31 04:01:43;;;;;;;;;;;;;;;4.87;64.65;98959.22;6287898;22;1254;-93
2021/12/31 04:04:10;;;;;;;;;;;;;;;4.87;64.47;98968.03;6282051;22;1303;-93
2021/12/31 04:06:37;;;;;;;;;;;;;;;4.88;64.55;98967.00;6285273;22;1185;-93
2021/12/31 04:09:03;;;;;;;;;;;;;;;4.88;64.75;98969.69;6282676;22;1276;-95
2021/12/31 04:11:30;;;;;;;;;;;;;;;4.88;64.58;98966.16;6288645;22;1276;-95
2021/12/31 04:13:56;;;;;;;;;;;;;;;4.88;64.67;98961.66;6286624;22;1320;-94
2021/12/31 04:16:23;;;;;;;;;;;;;;;4.88;64.44;98955.50;6283605;22;1173;-94
2021/12/31 04:18:50;;;;;;;;;;;;;;;4.90;64.49;98958.75;6284266;22;1869;-96
2021/12/31 04:21:19;;;;;;;;;;;;;;;4.91;64.50;98963.06;6285275;22;1289;-94
2021/12/31 04:23:51;;;;;;;;;;;;;;;4.91;64.50;98963.91;6282744;22;1309;-94
2021/12/31 04:26:18;;;;;;;;;;;;;;;4.91;64.51;98963.91;6284240;22;1405;-93
2021/12/31 04:28:45;;;;;;;;;;;;;;;4.92;64.53;98951.38;6284368;22;1296;-94
2021/12/31 04:31:11;;;;;;;;;;;;;;;4.93;64.58;98963.66;6283400;22;1185;-93
2021/12/31 04:33:38;;;;;;;;;;;;;;;4.93;64.46;98947.66;6286717;22;1424;-94
2021/12/31 04:36:04;;;;;;;;;;;;;;;4.93;64.44;98956.47;6284942;22;1192;-94
2021/12/31 04:38:31;;;;;;;;;;;;;;;4.93;64.35;98956.47;6285400;22;1921;-95
2021/12/31 04:40:57;;;;;;;;;;;;;;;4.93;64.38;98951.13;6284623;22;1271;-96
2021/12/31 04:43:24;;;;;;;;;;;;;;;4.93;64.68;98951.13;6287305;22;1158;-94
2021/12/31 04:45:50;;;;;;;;;;;;;;;4.95;64.21;98948.25;6284139;22;1268;-94
2021/12/31 04:48:17;;;;;;;;;;;;;;;4.95;64.32;98943.72;6285161;22;1257;-94
2021/12/31 04:50:44;;;;;;;;;;;;;;;4.95;64.34;98948.25;6284886;22;1340;-96
2021/12/31 04:53:10;;;;;;;;;;;;;;;4.98;64.44;98937.13;6315391;22;1284;-94
2021/12/31 04:55:37;;;;;;;;;;;;;;;4.98;64.26;98937.94;6340399;22;1273;-95
2021/12/31 04:58:03;;;;;;;;;;;;;;;4.98;64.24;98939.81;6342415;22;1892;-95
2021/12/31 05:00:30;;;;;;;;;;;;;;;4.99;64.33;98942.22;6342067;22;1207;-94
2021/12/31 05:02:56;;;;;;;;;;;;;;;5.00;64.27;98940.41;6343655;22;1274;-93
2021/12/31 05:05:23;;;;;;;;;;;;;;;4.99;64.33;98934.22;6343527;22;1230;-95
2021/12/31 05:07:50;;;;;;;;;;;;;;;5.01;64.32;98934.84;6343571;22;1283;-94
2021/12/31 05:10:18;;;;;;;;;;;;;;;5.03;64.12;98944.47;6343929;22;1165;-95
2021/12/31 05:12:45;;;;;;;;;;;;;;;5.01;64.34;98948.19;6344405;22;1330;-94
2021/12/31 05:15:11;;;;;;;;;;;;;;;5.03;64.11;98942.63;6347463;22;1193;-94
2021/12/31 05:17:38;;;;;;;;;;;;;;;5.04;64.30;98946.09;6349422;22;1896;-94
2021/12/31 05:20:05;;;;;;;;;;;;;;;5.04;64.19;98936.25;6344022;22;1138;-95
2021/12/31 05:22:33;;;;;;;;;;;;;;;5.04;64.29;98940.78;6342517;22;1276;-95
2021/12/31 05:25:00;;;;;;;;;;;;;;;5.03;64.39;98929.28;6343044;22;1432;-95
2021/12/31 05:27:26;;;;;;;;;;;;;;;5.06;64.25;98933.34;6343628;22;1368;-95
2021/12/31 05:29:53;;;;;;;;;;;;;;;5.08;64.23;98936.59;6343341;22;1188;-94
2021/12/31 05:32:19;;;;;;;;;;;;;;;5.08;64.21;98928.59;6344429;22;1193;-94
2021/12/31 05:34:46;;;;;;;;;;;;;;;5.06;64.31;98926.16;6342368;22;1299;-94
2021/12/31 05:37:12;;;;;;;;;;;;;;;5.09;64.09;98927.56;6343793;22;1158;-95
2021/12/31 05:39:39;;;;;;;;;;;;;;;5.07;64.30;98921.66;6343432;22;1942;-96
2021/12/31 05:42:05;;;;;;;;;;;;;;;5.07;64.23;98930.47;6344403;22;1404;-95
2021/12/31 05:44:32;;;;;;;;;;;;;;;5.08;64.39;98931.28;6343757;22;1168;-95
2021/12/31 05:46:58;;;;;;;;;;;;;;;5.06;64.17;98931.50;6345239;22;1289;-95
2021/12/31 05:49:26;;;;;;;;;;;;;;;5.09;64.18;98930.22;6343779;22;1265;-95
2021/12/31 05:51:53;;;;;;;;;;;;;;;5.08;64.30;98931.28;6343065;22;1201;-95
2021/12/31 05:54:20;;;;;;;;;;;;;;;5.08;64.07;98932.06;6287529;22;1264;-94
2021/12/31 05:56:46;;;;;;;;;;;;;;;5.09;64.24;98933.72;6288378;22;1342;-96
2021/12/31 05:59:13;;;;;;;;;;;;;;;5.09;64.25;98927.56;6288953;22;1900;-94
2021/12/31 06:01:39;;;;;;;;;;;;;;;5.10;64.35;98924.69;6286823;22;1462;-95
2021/12/31 06:04:06;;;;;;;;;;;;;;;5.06;64.39;98917.31;6288682;22;1177;-95
2021/12/31 06:06:32;;;;;;;;;;;;;;;5.08;64.27;98915.25;6287440;22;1167;-95
2021/12/31 06:08:59;;;;;;;;;;;;;;;5.08;64.23;98916.06;6288847;22;1217;-95
2021/12/31 06:11:26;;;;;;;;;;;;;;;5.07;64.17;98917.13;6285428;22;1198;-95
2021/12/31 06:14:00;;;;;;;;;;;;;;;5.08;64.33;98917.94;6283753;22;1173;-94
2021/12/31 06:16:27;;;;;;;;;;;;;;;5.09;64.28;98925.72;6288493;22;1294;-96
2021/12/31 06:18:54;;;;;;;;;;;;;;;5.08;64.41;98931.28;6288781;22;1893;-94
2021/12/31 06:21:21;;;;;;;;;;;;;;;5.09;64.20;98932.88;6287461;22;1338;-95
2021/12/31 06:23:47;;;;;;;;;;;;;;;5.07;64.32;98925.13;6288205;22;1301;-95
2021/12/31 06:26:14;;;;;;;;;;;;;;;5.07;64.32;98930.47;6286702;22;1242;-94
2021/12/31 06:28:40;;;;;;;;;;;;;;;5.07;64.43;98929.66;6288234;22;1391;-95
2021/12/31 06:31:07;;;;;;;;;;;;;;;5.06;64.55;98936.00;6289248;22;1540;-95
2021/12/31 06:33:33;;;;;;;;;;;;;;;5.07;64.48;98927.78;6289281;22;1178;-95
2021/12/31 06:36:00;;;;;;;;;;;;;;;5.07;64.37;98932.31;6289372;22;1443;-95
2021/12/31 06:38:27;;;;;;;;;;;;;;;5.06;64.37;98926.16;6291606;22;1904;-94
2021/12/31 06:40:54;;;;;;;;;;;;;;;5.06;64.41;98923.50;6287091;22;1379;-96
2021/12/31 06:43:20;;;;;;;;;;;;;;;5.05;64.42;98929.06;6292123;22;1226;-95
2021/12/31 06:45:47;;;;;;;;;;;;;;;5.05;64.38;98929.84;6290389;22;1491;-96
2021/12/31 06:48:13;;;;;;;;;;;;;;;5.03;64.33;98918.63;6291317;22;1260;-96
2021/12/31 06:50:40;;;;;;;;;;;;;;;5.04;64.52;98920.22;6290206;22;1313;-94
2021/12/31 06:53:07;;;;;;;;;;;;;;;5.03;64.57;98917.78;6313148;22;1231;-94
2021/12/31 06:55:33;;;;;;;;;;;;;;;5.03;64.44;98923.09;6346144;22;1145;-93
2021/12/31 06:58:01;;;;;;;;;;;;;;;5.03;64.41;98929.28;6345298;22;1869;-96
2021/12/31 07:00:28;;;;;;;;;;;;;;;5.04;64.32;98936.25;6348446;22;1209;-94
2021/12/31 07:02:55;;;;;;;;;;;;;;;5.03;64.32;98937.28;6348668;22;1414;-94
2021/12/31 07:05:21;;;;;;;;;;;;;;;5.01;64.54;98937.50;6348184;22;1253;-94
2021/12/31 07:07:48;;;;;;;;;;;;;;;5.01;64.48;98942.84;6343453;22;1319;-95
2021/12/31 07:10:14;;;;;;;;;;;;;;;5.03;64.38;98942.63;6351872;22;1507;-95
2021/12/31 07:12:41;;;;;;;;;;;;;;;5.01;64.43;98942.84;6351578;22;1301;-96
2021/12/31 07:15:07;;;;;;;;;;;;;;;5.02;64.66;98954.31;6344254;22;1214;-94
2021/12/31 07:17:34;;;;;;;;;;;;;;;5.00;64.69;98959.91;6347680;22;1256;-94
2021/12/31 07:20:01;;;;;;;;;;;;;;;5.00;64.67;98957.22;6342123;22;1905;-95
2021/12/31 07:22:27;;;;;;;;;;;;;;;5.00;64.53;98970.56;6345516;22;1169;-94
2021/12/31 07:24:54;;;;;;;;;;;;;;;4.99;64.58;98963.56;6344777;22;1248;-94
2021/12/31 07:27:21;;;;;;;;;;;;;;;5.00;64.64;98977.75;6346654;22;1470;-94
2021/12/31 07:29:47;;;;;;;;;;;;;;;4.98;64.59;98977.97;6347127;22;1486;-95
2021/12/31 07:32:14;;;;;;;;;;;;;;;4.98;64.53;98980.63;6347539;22;1259;-94
2021/12/31 07:34:41;;;;;;;;;;;;;;;4.98;64.74;98987.84;6348557;22;1307;-95
2021/12/31 07:37:07;;;;;;;;;;;;;;;4.98;64.59;99001.19;6350088;22;1388;-95
2021/12/31 07:39:35;;;;;;;;;;;;;;;4.98;64.73;98988.66;6353277;22;1897;-95
2021/12/31 07:42:02;;;;;;;;;;;;;;;4.97;64.87;98981.69;6345952;22;1494;-96
2021/12/31 07:44:28;;;;;;;;;;;;;;;4.97;64.64;98988.84;6343138;22;1251;-96
2021/12/31 07:46:55;;;;;;;;;;;;;;;4.96;64.59;98985.38;6343665;22;1445;-96
2021/12/31 07:49:22;;;;;;;;;;;;;;;4.96;64.58;98980.03;6343483;22;1218;-96
2021/12/31 07:51:48;;;;;;;;;;;;;;;4.95;64.54;98981.09;6342964;22;1333;-95
2021/12/31 07:54:15;;;;;;;;;;;;;;;4.95;64.75;98981.09;6342565;22;1346;-96
2021/12/31 07:56:41;;;;;;;;;;;;;;;4.94;64.71;98978.63;6342801;22;1248;-96
2021/12/31 07:59:08;;;;;;;;;;;;;;;4.94;64.64;98982.13;6342864;22;1951;-96
2021/12/31 08:01:34;;;;;;;;;;;;;;;4.95;64.49;98973.06;6342977;22;1451;-95
2021/12/31 08:04:02;;;;;;;;;;;;;;;4.96;64.62;98976.56;6343753;22;1254;-96
2021/12/31 08:06:29;;;;;;;;;;;;;;;4.97;64.67;98976.34;6313384;22;1285;-95
2021/12/31 08:08:56;;;;;;;;;;;;;;;4.98;64.52;98974.50;6313627;22;1349;-96
2021/12/31 08:11:22;;;;;;;;;;;;;;;4.97;64.50;98976.34;6313990;22;1235;-96
2021/12/31 08:13:49;;;;;;;;;;;;;;;4.98;64.42;98975.31;6312122;22;1297;-94
2021/12/31 08:16:15;;;;;;;;;;;;;;;4.98;64.57;98971.81;6314877;22;1150;-94
2021/12/31 08:18:42;;;;;;;;;;;;;;;4.98;64.54;98975.31;6314893;22;1908;-94
2021/12/31 08:21:08;;;;;;;;;;;;;;;4.97;64.52;98973.69;6313822;22;1389;-95
2021/12/31 08:23:35;;;;;;;;;;;;;;;4.98;64.58;98971.81;6313266;22;1279;-94
2021/12/31 08:26:02;;;;;;;;;;;;;;;4.98;64.39;98977.97;6314887;22;1217;-95
2021/12/31 08:28:29;;;;;;;;;;;;;;;4.99;64.46;98981.44;6313690;22;1384;-95
2021/12/31 08:30:58;;;;;;;;;;;;;;;4.99;64.48;98987.59;6311938;22;1423;-94
2021/12/31 08:33:25;;;;;;;;;;;;;;;5.00;64.58;98985.78;6312275;22;1247;-95
2021/12/31 08:35:51;;;;;;;;;;;;;;;5.01;64.36;98988.19;6309801;22;1382;-95
2021/12/31 08:38:18;;;;;;;;;;;;;;;5.01;64.54;98974.84;6311976;22;1941;-95
2021/12/31 08:40:45;;;;;;;;;;;;;;;4.99;64.47;98990.25;6315185;22;1275;-95
2021/12/31 08:43:12;;;;;;;;;;;;;;;5.00;64.45;98972.44;6322991;22;936;-94
2021/12/31 08:45:39;;;;;;;;;;;;;;;5.01;64.49;98982.88;6311971;22;1243;-92
2021/12/31 08:48:05;;;;;;;;;;;;;;;5.04;64.46;98988.81;6309560;22;1283;-92
2021/12/31 08:50:32;;;;;;;;;;;;;;;5.03;64.31;98988.00;6310057;22;1296;-93
2021/12/31 08:52:58;;;;;;;;;;;;;;;5.03;64.31;99012.00;6310866;22;1218;-93
2021/12/31 08:55:25;;;;;;;;;;;;;;;5.04;64.40;98991.47;6308395;22;1178;-95
2021/12/31 08:57:51;;;;;;;;;;;;;;;5.04;64.51;99005.63;6310414;22;1158;-93
2021/12/31 09:00:18;;;;;;;;;;;;;;;5.06;64.37;99026.72;6309912;22;1934;-95
2021/12/31 09:02:48;;;;;;;;;;;;;;;5.04;64.28;99010.16;6312303;22;1396;-94
2021/12/31 09:05:16;;;;;;;;;;;;;;;5.04;64.48;99016.28;6322713;22;1607;-95
2021/12/31 09:07:43;;;;;;;;;;;;;;;5.04;64.52;99002.97;6320396;22;1282;-96
2021/12/31 09:10:12;;;;;;;;;;;;;;;5.06;64.29;99022.25;6324872;22;1276;-95
2021/12/31 09:12:40;;;;;;;;;;;;;;;5.07;64.17;99020.38;6324685;22;1331;-95
2021/12/31 09:15:06;;;;;;;;;;;;;;;5.07;64.31;99015.03;6325322;22;1149;-95
2021/12/31 09:17:33;;;;;;;;;;;;;;;5.08;64.21;99014.00;6325419;22;1273;-96
2021/12/31 09:20:00;;;;;;;;;;;;;;;5.06;64.20;99021.41;6323468;22;1869;-96
2021/12/31 09:22:28;;;;;;;;;;;;;;;5.06;64.32;99021.41;6321919;22;1278;-96
2021/12/31 09:27:36;;;;;;;;;;;;;;;5.08;64.27;99032.69;6327611;22;1450;-95
2021/12/31 09:30:15;;;;;;;;;;;;;;;5.08;64.15;99020.16;6331533;22;1397;-96
2021/12/31 09:35:23;;;;;;;;;;;;;;;5.07;64.34;99036.41;6332587;22;1079;-95
2021/12/31 10:04:47;;;;;;;;;;;;;;;5.07;64.36;99036.41;6294475;22;758;-96
2021/12/31 10:07:41;;;;;;;;;;;;;;;5.05;64.43;99036.59;6292647;22;656;-94
2021/12/31 10:10:45;;;;;;;;;;;;;;;5.06;64.29;99032.06;6294991;22;639;-96
2021/12/31 10:16:41;;;;;;;;;;;;;;;5.05;64.41;99027.78;6261021;22;1165;-95
2021/12/31 10:19:42;;;;;;;;;;;;;;;5.05;64.35;99027.78;6293774;22;1866;-96
2021/12/31 10:25:40;;;;;;;;;;;;;;;5.03;64.24;99017.34;6285560;22;1206;-95
2021/12/31 10:28:35;;;;;;;;;;;;;;;5.06;64.30;99029.41;6291615;22;600;-95
2021/12/31 10:31:34;;;;;;;;;;;;;;;5.03;64.59;99030.69;6297616;22;762;-96
2021/12/31 10:44:11;;;;;;;;;;;;;;;5.01;64.49;99044.22;6205196;23;1436;-95
2021/12/31 10:47:05;;;;;;;;;;;;;;;5.02;64.65;99050.38;6199953;23;826;-96
2021/12/31 11:42:48;;;;;;;;;;;;;;;4.91;64.68;99062.63;6323580;22;1028;-96
2021/12/31 11:45:40;;;;;;;;;;;;;;;4.93;64.73;99068.53;6329933;22;664;-95
2021/12/31 11:50:54;;;;;;;;;;;;;;;4.93;64.54;99060.53;6300987;22;1292;-95
2021/12/31 11:53:33;;;;;;;;;;;;;;;4.93;64.83;99051.72;6305098;22;1621;-96
2021/12/31 11:56:01;;;;;;;;;;;;;;;4.94;64.58;99058.66;6300214;22;1495;-95
2021/12/31 11:58:28;;;;;;;;;;;;;;;4.96;64.51;99060.06;6301549;22;1242;-95
2021/12/31 12:00:55;;;;;;;;;;;;;;;4.94;64.71;99056.84;6301737;22;1948;-96
2021/12/31 12:03:22;;;;;;;;;;;;;;;4.93;64.68;99057.84;6300703;22;1289;-95
2021/12/31 12:05:48;;;;;;;;;;;;;;;4.94;64.83;99064.00;6300454;22;1325;-95
2021/12/31 12:08:23;;;;;;;;;;;;;;;4.95;64.57;99058.47;6300014;22;1416;-96
2021/12/31 12:10:54;;;;;;;;;;;;;;;4.93;64.83;99054.38;6300919;22;1427;-95
2021/12/31 12:13:22;;;;;;;;;;;;;;;4.94;64.64;99064.00;6330498;22;883;-95
2021/12/31 12:15:49;;;;;;;;;;;;;;;4.96;64.57;99059.28;6301083;22;1233;-96
2021/12/31 12:18:20;;;;;;;;;;;;;;;4.95;64.61;99055.78;6302418;22;1458;-95
2021/12/31 12:20:51;;;;;;;;;;;;;;;4.95;64.62;99050.44;6305672;22;1915;-94
2021/12/31 12:23:25;;;;;;;;;;;;;;;4.95;64.64;99053.13;6297495;22;1352;-95
2021/12/31 12:25:51;;;;;;;;;;;;;;;4.98;64.54;99059.88;6295724;22;1399;-95
2021/12/31 12:31:08;;;;;;;;;;;;;;;4.98;64.58;99046.53;6290890;22;1273;-96
2021/12/31 12:33:41;;;;;;;;;;;;;;;4.97;64.56;99064.41;6309902;22;1360;-96
2021/12/31 12:36:12;;;;;;;;;;;;;;;4.98;64.67;99049.19;6293020;22;1224;-95
2021/12/31 12:38:39;;;;;;;;;;;;;;;4.97;64.53;99048.38;6291716;22;1262;-94
2021/12/31 12:43:57;;;;;;;;;;;;;;;4.98;64.39;99057.22;6317868;22;1308;-95
2021/12/31 12:46:27;;;;;;;;;;;;;;;4.99;64.67;99059.63;6294227;22;1285;-95
2021/12/31 12:48:57;;;;;;;;;;;;;;;4.99;64.55;99056.97;6319536;22;1158;-95
2021/12/31 12:51:28;;;;;;;;;;;;;;;4.98;64.53;99033.19;6295491;22;1435;-93
2021/12/31 12:53:59;;;;;;;;;;;;;;;4.99;64.57;99043.63;6314293;22;1251;-95
2021/12/31 13:39:38;;;;;;;;;;;;;;;4.93;64.59;99092.53;6118148;23;1906;-96
2021/12/31 13:42:30;;;;;;;;;;;;;;;4.93;64.87;99087.19;6120415;23;787;-94
2021/12/31 14:29:32;;;;;;;;;;;;;;;4.91;64.85;99117.78;6270841;22;1717;-96
2021/12/31 14:32:00;;;;;;;;;;;;;;;4.90;64.73;99125.00;6272311;22;1443;-95
2021/12/31 14:34:28;;;;;;;;;;;;;;;4.90;64.92;99121.50;6264612;22;1723;-94
2021/12/31 14:59:08;;;;;;;;;;;;;;;4.91;64.65;99137.31;6294015;22;1837;-94
2021/12/31 15:07:28;;;;;;;;;;;;;;;4.92;64.79;99140.78;6282322;22;1101;-94
2021/12/31 15:09:57;;;;;;;;;;;;;;;4.94;64.49;99144.88;6266644;22;1262;-96
2021/12/31 15:12:24;;;;;;;;;;;;;;;4.93;64.65;99145.91;6257495;22;1238;-94
2021/12/31 15:14:52;;;;;;;;;;;;;;;4.94;64.58;99154.72;6258095;22;1293;-95
2021/12/31 15:17:20;;;;;;;;;;;;;;;4.93;64.64;99156.56;6259151;22;1297;-95
2021/12/31 15:19:47;;;;;;;;;;;;;;;4.92;64.57;99160.28;6260000;22;1877;-94
2021/12/31 15:22:21;;;;;;;;;;;;;;;4.91;64.77;99164.00;6291524;22;871;-96
2021/12/31 15:24:49;;;;;;;;;;;;;;;4.90;64.81;99165.00;6263051;22;1483;-95
2021/12/31 15:27:17;;;;;;;;;;;;;;;4.91;64.74;99163.16;6263964;22;1263;-95
2021/12/31 15:29:43;;;;;;;;;;;;;;;4.89;64.63;99174.06;6264939;22;1379;-94
2021/12/31 15:32:10;;;;;;;;;;;;;;;4.92;64.68;99175.47;6263692;22;1286;-94
2021/12/31 15:37:27;;;;;;;;;;;;;;;4.91;64.67;99182.66;6259295;22;1293;-96
2021/12/31 15:39:54;;;;;;;;;;;;;;;4.91;64.65;99184.50;6260667;22;1905;-96
2021/12/31 15:42:22;;;;;;;;;;;;;;;4.89;64.69;99179.41;6259841;22;1501;-95
2021/12/31 15:44:48;;;;;;;;;;;;;;;4.87;64.82;99189.44;6260308;22;1235;-96
2021/12/31 15:47:15;;;;;;;;;;;;;;;4.88;64.71;99187.59;6260627;22;1381;-95
2021/12/31 15:49:42;;;;;;;;;;;;;;;4.90;64.83;99198.88;6261452;22;1391;-94
2021/12/31 15:52:14;;;;;;;;;;;;;;;4.90;64.59;99207.69;6260534;22;1300;-95
2021/12/31 15:54:41;;;;;;;;;;;;;;;4.87;64.71;99207.31;6260516;22;1214;-95
2021/12/31 15:57:07;;;;;;;;;;;;;;;4.90;64.67;99215.69;6258588;22;1364;-95
2021/12/31 15:59:34;;;;;;;;;;;;;;;4.88;64.61;99214.28;6259183;22;1901;-95
2021/12/31 16:02:00;;;;;;;;;;;;;;;4.88;64.68;99228.47;6258722;22;1219;-94
2021/12/31 16:04:27;;;;;;;;;;;;;;;4.87;64.68;99232.16;6256588;22;1266;-95
2021/12/31 16:06:54;;;;;;;;;;;;;;;4.87;64.74;99242.00;6256758;22;1262;-95
2021/12/31 16:09:20;;;;;;;;;;;;;;;4.85;64.82;99239.53;6256250;22;1288;-95
2021/12/31 16:11:47;;;;;;;;;;;;;;;4.87;64.89;99242.00;6256092;22;1393;-94
2021/12/31 16:14:13;;;;;;;;;;;;;;;4.85;64.88;99241.38;6253767;22;1389;-95
2021/12/31 16:16:40;;;;;;;;;;;;;;;4.83;64.98;99249.63;6255439;22;1272;-93
2021/12/31 16:19:06;;;;;;;;;;;;;;;4.84;64.91;99245.91;6261437;22;1330;-94
2021/12/31 16:21:33;;;;;;;;;;;;;;;4.85;64.88;99252.88;6257208;22;1900;-94
2021/12/31 16:23:59;;;;;;;;;;;;;;;4.84;64.81;99259.25;6253378;22;1331;-93
2021/12/31 16:26:26;;;;;;;;;;;;;;;4.84;64.78;99272.59;6257254;22;1291;-93
2021/12/31 16:28:53;;;;;;;;;;;;;;;4.83;64.74;99257.63;6253162;22;1335;-96
2021/12/31 16:31:19;;;;;;;;;;;;;;;4.82;64.80;99271.16;6256929;22;1156;-94
2021/12/31 16:33:46;;;;;;;;;;;;;;;4.83;64.72;99294.97;6253308;22;1278;-93
2021/12/31 16:36:13;;;;;;;;;;;;;;;4.81;64.76;99278.34;6255365;22;1296;-94
2021/12/31 16:38:39;;;;;;;;;;;;;;;4.82;64.81;99292.50;6253924;22;1319;-95
2021/12/31 16:41:06;;;;;;;;;;;;;;;4.81;64.95;99297.03;6252848;22;1904;-96
2021/12/31 16:43:32;;;;;;;;;;;;;;;4.80;64.82;99298.06;6256614;22;1254;-95
2021/12/31 16:45:59;;;;;;;;;;;;;;;4.80;64.79;99286.59;6254234;22;1311;-94
2021/12/31 16:48:25;;;;;;;;;;;;;;;4.81;64.85;99281.03;6254363;22;1314;-94
2021/12/31 16:50:52;;;;;;;;;;;;;;;4.83;64.73;99278.16;6252581;22;1282;-94
2021/12/31 16:53:18;;;;;;;;;;;;;;;4.82;64.78;99279.16;6253273;22;1149;-94
2021/12/31 16:55:45;;;;;;;;;;;;;;;4.81;64.71;99273.00;6253461;22;1226;-96
2021/12/31 16:58:11;;;;;;;;;;;;;;;4.84;64.73;99271.78;6275177;22;1384;-95
2021/12/31 17:00:38;;;;;;;;;;;;;;;4.82;64.67;99279.16;6288220;22;1873;-93
2021/12/31 17:03:05;;;;;;;;;;;;;;;4.82;64.79;99271.97;6286799;22;1178;-93